Time;durP1;ratioP1;P1;durP2;ratioP2;P2;SDS_P1;SDS_P2;PMS_P1;PMS_P2;Temp;Humidity;BMP_temperature;BMP_pressure;BME280_temperature;BME280_humidity;BME280_pressure;Samples;Min_cycle;Max_cycle;Signal;HPM_P1;HPM_P2
2022/05/31 00:02:17;;;;;;;4.07;2.70;;;9.80;99.90;;;;;;5060880;28;20045;-59
2022/05/31 00:04:44;;;;;;;4.05;2.83;;;9.80;99.90;;;;;;5056538;28;20060;-60
2022/05/31 00:07:10;;;;;;;4.88;3.15;;;9.80;99.90;;;;;;5044873;28;20175;-59
2022/05/31 00:09:36;;;;;;;3.35;2.33;;;9.80;99.90;;;;;;5062110;28;20044;-59
2022/05/31 00:12:02;;;;;;;4.25;3.00;;;9.80;99.90;;;;;;5061455;28;20086;-59
2022/05/31 00:14:28;;;;;;;4.90;2.50;;;9.80;99.90;;;;;;5043113;28;20056;-59
2022/05/31 00:16:54;;;;;;;5.43;2.72;;;9.80;99.90;;;;;;5061476;28;20045;-61
2022/05/31 00:19:21;;;;;;;6.97;3.35;;;9.80;99.90;;;;;;5061417;28;20097;-60
2022/05/31 00:22:02;;;;;;;4.55;2.97;;;9.80;99.90;;;;;;5062517;28;20495;-59
2022/05/31 00:24:29;;;;;;;3.88;2.72;;;9.80;99.90;;;;;;5058789;28;20044;-59
2022/05/31 00:26:55;;;;;;;5.90;2.95;;;9.70;99.90;;;;;;5059655;28;20075;-59
2022/05/31 00:29:21;;;;;;;4.75;2.60;;;9.70;99.90;;;;;;5062507;28;20469;-59
2022/05/31 00:31:48;;;;;;;4.90;2.65;;;9.70;99.90;;;;;;5040670;28;20308;-58
2022/05/31 00:34:16;;;;;;;4.05;2.80;;;9.60;99.90;;;;;;5059877;28;20056;-59
2022/05/31 00:36:46;;;;;;;4.50;2.85;;;9.60;99.90;;;;;;5060852;28;20036;-58
2022/05/31 00:39:13;;;;;;;3.05;2.58;;;9.50;99.90;;;;;;5062591;28;20125;-59
2022/05/31 00:41:40;;;;;;;3.63;2.90;;;9.50;99.90;;;;;;5044773;28;20048;-59
2022/05/31 00:44:10;;;;;;;4.28;3.15;;;9.50;99.90;;;;;;5060812;28;20040;-60
2022/05/31 00:46:50;;;;;;;3.92;2.90;;;9.50;99.90;;;;;;5061102;28;20048;-58
2022/05/31 00:49:37;;;;;;;6.07;3.30;;;9.50;99.90;;;;;;5057350;28;20044;-60
2022/05/31 00:52:11;;;;;;;4.28;2.65;;;9.50;99.90;;;;;;5043988;28;20060;-58
2022/05/31 00:54:43;;;;;;;5.47;3.10;;;9.40;99.90;;;;;;5060326;28;20444;-61
2022/05/31 00:57:11;;;;;;;4.72;2.78;;;9.40;99.90;;;;;;5060208;28;20483;-59
2022/05/31 00:59:46;;;;;;;4.00;2.63;;;9.40;99.90;;;;;;5044539;28;20050;-61
2022/05/31 01:02:15;;;;;;;4.45;3.20;;;9.40;99.90;;;;;;5026352;28;20122;-59
2022/05/31 01:05:04;;;;;;;4.70;3.00;;;9.50;99.90;;;;;;5059728;28;20080;-59
2022/05/31 01:07:30;;;;;;;4.40;3.03;;;9.40;99.90;;;;;;5072120;28;20056;-58
2022/05/31 01:09:57;;;;;;;4.97;3.15;;;9.40;99.90;;;;;;5061630;28;20047;-58
2022/05/31 01:13:00;;;;;;;4.73;2.90;;;9.40;99.90;;;;;;5014963;28;20416;-59
2022/05/31 01:15:46;;;;;;;3.30;2.70;;;9.40;99.90;;;;;;5053377;28;20058;-59
2022/05/31 01:18:31;;;;;;;4.07;3.45;;;9.30;99.90;;;;;;5045475;28;20380;-59
2022/05/31 01:21:36;;;;;;;4.25;2.83;;;9.30;99.90;;;;;;5058970;28;20044;-58
2022/05/31 01:24:26;;;;;;;5.03;3.55;;;9.30;99.90;;;;;;5071388;28;20385;-60
2022/05/31 01:27:12;;;;;;;4.82;3.28;;;9.30;99.90;;;;;;5042744;28;20096;-59
2022/05/31 01:29:39;;;;;;;3.95;3.30;;;9.30;99.90;;;;;;5058271;28;20098;-59
2022/05/31 01:32:08;;;;;;;4.15;3.20;;;9.30;99.90;;;;;;5058730;28;20048;-59
2022/05/31 01:34:55;;;;;;;4.55;3.25;;;9.20;99.90;;;;;;5059610;28;20045;-59
2022/05/31 01:37:38;;;;;;;5.18;3.28;;;9.20;99.90;;;;;;5056921;28;20060;-59
2022/05/31 01:40:11;;;;;;;4.57;2.97;;;9.20;99.90;;;;;;5053992;28;20538;-59
2022/05/31 01:42:42;;;;;;;3.90;3.00;;;9.20;99.90;;;;;;5025877;28;20052;-59
2022/05/31 01:45:15;;;;;;;4.82;3.35;;;9.20;99.90;;;;;;5042944;28;20045;-58
2022/05/31 01:47:41;;;;;;;4.63;3.58;;;9.20;99.90;;;;;;5049615;28;20048;-59
2022/05/31 01:50:12;;;;;;;4.10;3.22;;;9.20;99.90;;;;;;5059936;28;20893;-58
2022/05/31 01:52:39;;;;;;;4.88;3.65;;;9.20;99.90;;;;;;5041144;28;20052;-59
2022/05/31 01:55:08;;;;;;;4.95;3.67;;;9.20;99.90;;;;;;5057428;28;20091;-59
2022/05/31 01:57:35;;;;;;;6.85;3.65;;;9.20;99.90;;;;;;5037447;28;20047;-61
2022/05/31 02:00:08;;;;;;;5.63;3.65;;;9.20;99.90;;;;;;5057504;28;20463;-58
2022/05/31 02:02:41;;;;;;;5.22;3.60;;;9.20;99.90;;;;;;5053806;28;20042;-61
2022/05/31 02:05:08;;;;;;;5.45;3.58;;;9.30;99.90;;;;;;5039049;28;20052;-59
2022/05/31 02:07:34;;;;;;;5.15;3.28;;;9.30;99.90;;;;;;5031168;28;20060;-59
2022/05/31 02:10:01;;;;;;;5.10;3.75;;;9.30;99.90;;;;;;4996412;28;20468;-59
2022/05/31 02:12:36;;;;;;;5.72;3.53;;;9.30;99.90;;;;;;5042921;28;20049;-59
2022/05/31 02:15:33;;;;;;;5.43;3.55;;;9.30;99.90;;;;;;5054961;28;20055;-60
2022/05/31 02:18:18;;;;;;;4.90;3.80;;;9.30;99.90;;;;;;5058662;28;20481;-59
2022/05/31 02:21:02;;;;;;;4.60;3.58;;;9.30;99.90;;;;;;5054902;28;20040;-59
2022/05/31 02:23:28;;;;;;;6.50;3.85;;;9.30;99.90;;;;;;5044002;28;20566;-59
2022/05/31 02:25:55;;;;;;;4.93;3.42;;;9.30;99.90;;;;;;5058723;28;20041;-59
2022/05/31 02:28:22;;;;;;;7.05;3.88;;;9.40;99.90;;;;;;5041250;28;20537;-59
2022/05/31 02:30:48;;;;;;;6.03;3.58;;;9.40;99.90;;;;;;5043400;28;20728;-59
2022/05/31 02:33:15;;;;;;;5.75;3.67;;;9.40;99.90;;;;;;5058766;28;20108;-61
2022/05/31 02:35:41;;;;;;;7.03;3.88;;;9.40;99.90;;;;;;5059383;28;20071;-59
2022/05/31 02:38:07;;;;;;;5.55;4.07;;;9.40;99.90;;;;;;5057385;28;20439;-59
2022/05/31 02:40:33;;;;;;;6.93;4.05;;;9.50;99.90;;;;;;5059252;28;20048;-59
2022/05/31 02:42:59;;;;;;;6.00;4.10;;;9.50;99.90;;;;;;5058325;28;20053;-58
2022/05/31 02:45:26;;;;;;;6.95;3.42;;;9.50;99.90;;;;;;5041640;28;20729;-59
2022/05/31 02:47:53;;;;;;;5.57;3.53;;;9.50;99.90;;;;;;5069098;28;20527;-58
2022/05/31 02:50:20;;;;;;;5.32;3.63;;;9.60;99.90;;;;;;5063470;28;20044;-59
2022/05/31 02:52:46;;;;;;;5.15;4.15;;;9.60;99.90;;;;;;5061468;28;20402;-59
2022/05/31 02:55:14;;;;;;;5.43;4.15;;;9.60;99.90;;;;;;5065112;28;20376;-59
2022/05/31 02:58:06;;;;;;;4.40;3.70;;;9.60;99.90;;;;;;5037196;28;20048;-59
2022/05/31 03:00:55;;;;;;;6.72;4.18;;;9.60;99.90;;;;;;5030996;28;20114;-59
2022/05/31 03:03:44;;;;;;;7.05;3.92;;;9.60;99.90;;;;;;5061912;28;20052;-59
2022/05/31 03:06:49;;;;;;;4.85;3.85;;;9.60;99.90;;;;;;5051482;28;20080;-58
2022/05/31 03:09:16;;;;;;;4.93;3.70;;;9.70;99.90;;;;;;5058014;28;20111;-59
2022/05/31 03:11:59;;;;;;;5.38;4.07;;;9.60;99.90;;;;;;5046258;28;20050;-59
2022/05/31 03:15:03;;;;;;;4.80;4.05;;;9.60;99.90;;;;;;5042966;28;20060;-59
2022/05/31 03:17:39;;;;;;;6.60;4.90;;;9.60;99.90;;;;;;5073945;28;20457;-58
2022/05/31 03:20:17;;;;;;;5.45;3.90;;;9.60;99.90;;;;;;5058743;28;20044;-59
2022/05/31 03:23:00;;;;;;;6.07;4.28;;;9.70;99.90;;;;;;5061294;28;20040;-59
2022/05/31 03:25:28;;;;;;;6.35;4.53;;;9.70;99.90;;;;;;5043204;28;20055;-59
2022/05/31 03:27:59;;;;;;;5.97;4.07;;;9.60;99.90;;;;;;5060589;28;20084;-59
2022/05/31 03:30:25;;;;;;;6.70;4.15;;;9.60;99.90;;;;;;5062470;28;20551;-60
2022/05/31 03:32:53;;;;;;;5.03;4.53;;;9.60;99.90;;;;;;5045937;28;20487;-58
2022/05/31 03:35:19;;;;;;;7.78;4.35;;;9.60;99.90;;;;;;5062927;28;20574;-58
2022/05/31 03:37:47;;;;;;;5.97;4.65;;;9.60;99.90;;;;;;5045881;28;20511;-59
2022/05/31 03:43:18;;;;;;;7.15;4.70;;;9.70;99.90;;;;;;5042417;28;20356;-59
2022/05/31 03:46:00;;;;;;;5.82;5.07;;;9.70;99.90;;;;;;5041067;28;20055;-59
2022/05/31 03:48:33;;;;;;;7.38;5.20;;;9.70;99.90;;;;;;5061164;28;20151;-59
2022/05/31 03:51:04;;;;;;;6.35;4.43;;;9.70;99.90;;;;;;5058579;28;20040;-60
2022/05/31 03:53:31;;;;;;;6.72;5.07;;;9.70;99.90;;;;;;5045418;28;20051;-59
2022/05/31 03:56:01;;;;;;;6.00;4.95;;;9.80;99.90;;;;;;5027000;28;20048;-60
2022/05/31 03:58:27;;;;;;;6.15;5.10;;;9.80;99.90;;;;;;5069882;28;20056;-59
2022/05/31 04:00:59;;;;;;;5.90;4.85;;;9.80;99.90;;;;;;5044429;28;20411;-59
2022/05/31 04:03:26;;;;;;;6.72;4.85;;;9.80;99.90;;;;;;5045321;28;20052;-60
2022/05/31 04:05:54;;;;;;;8.25;5.43;;;9.80;99.90;;;;;;5043023;28;20049;-59
2022/05/31 04:08:22;;;;;;;6.63;4.75;;;9.80;99.90;;;;;;5060622;28;20407;-59
2022/05/31 04:10:49;;;;;;;7.00;5.18;;;9.80;99.90;;;;;;5058190;28;20048;-62
2022/05/31 04:13:16;;;;;;;7.78;5.35;;;9.90;99.90;;;;;;5042753;28;20194;-61
2022/05/31 04:16:08;;;;;;;7.05;5.75;;;9.80;99.90;;;;;;5062294;28;20048;-59
2022/05/31 04:18:39;;;;;;;6.35;5.22;;;9.80;99.90;;;;;;5044820;28;20094;-59
2022/05/31 04:21:09;;;;;;;6.53;5.35;;;9.90;99.90;;;;;;5047396;28;20055;-59
2022/05/31 04:26:42;;;;;;;6.40;4.82;;;9.90;99.90;;;;;;5061127;28;20048;-58
2022/05/31 04:29:27;;;;;;;7.25;5.13;;;9.90;99.90;;;;;;5061050;28;20060;-59
2022/05/31 04:32:16;;;;;;;6.82;5.10;;;10.00;99.90;;;;;;5062157;28;20461;-59
2022/05/31 04:34:45;;;;;;;10.10;5.25;;;9.90;99.90;;;;;;5057332;28;20040;-59
2022/05/31 04:37:13;;;;;;;6.68;4.97;;;10.00;99.90;;;;;;5052067;28;20128;-59
2022/05/31 04:40:08;;;;;;;5.85;4.85;;;10.00;99.90;;;;;;5036748;28;20053;-59
2022/05/31 04:42:59;;;;;;;9.18;6.03;;;10.00;99.90;;;;;;5058440;28;20468;-59
2022/05/31 04:45:46;;;;;;;6.85;5.47;;;10.00;99.90;;;;;;5070067;28;20060;-59
2022/05/31 04:48:33;;;;;;;6.28;4.63;;;10.00;99.90;;;;;;5047221;28;20102;-60
2022/05/31 04:51:00;;;;;;;6.22;5.60;;;10.00;99.90;;;;;;5026866;28;20047;-59
2022/05/31 04:53:33;;;;;;;5.60;5.00;;;10.10;99.90;;;;;;5074932;28;20082;-59
2022/05/31 04:56:26;;;;;;;6.75;5.03;;;10.10;99.90;;;;;;5044680;28;20083;-59
2022/05/31 04:58:56;;;;;;;6.97;5.00;;;10.10;99.90;;;;;;5060597;28;20051;-59
2022/05/31 05:01:24;;;;;;;7.35;5.72;;;10.10;99.90;;;;;;5039984;28;20044;-59
2022/05/31 05:03:55;;;;;;;5.30;4.80;;;10.20;99.90;;;;;;5025882;28;20510;-59
2022/05/31 05:06:22;;;;;;;6.50;5.38;;;10.20;99.90;;;;;;5075531;28;20041;-60
2022/05/31 05:08:52;;;;;;;6.45;5.50;;;10.30;99.90;;;;;;5059930;28;20043;-59
2022/05/31 05:11:21;;;;;;;6.60;5.50;;;10.30;99.90;;;;;;5058070;28;20460;-59
2022/05/31 05:13:55;;;;;;;6.18;5.57;;;10.30;99.90;;;;;;5044262;28;20052;-59
2022/05/31 05:16:49;;;;;;;7.28;5.43;;;10.40;99.90;;;;;;5045855;28;20056;-60
2022/05/31 05:19:16;;;;;;;7.93;5.60;;;10.40;99.90;;;;;;5059683;28;20049;-60
2022/05/31 05:21:46;;;;;;;7.97;5.70;;;10.50;99.90;;;;;;5057689;28;20052;-59
2022/05/31 05:24:12;;;;;;;7.50;5.85;;;10.60;99.90;;;;;;5048324;28;20056;-59
2022/05/31 05:26:53;;;;;;;6.60;5.90;;;10.60;99.90;;;;;;5057257;28;20486;-60
2022/05/31 05:32:24;;;;;;;6.70;5.00;;;10.70;99.90;;;;;;5048279;28;20048;-59
2022/05/31 05:35:11;;;;;;;7.63;5.47;;;10.80;99.90;;;;;;5057709;28;20053;-59
2022/05/31 05:37:38;;;;;;;8.32;4.97;;;10.90;99.90;;;;;;5058237;28;20156;-59
2022/05/31 05:40:05;;;;;;;7.60;4.78;;;10.90;99.90;;;;;;5060485;28;20103;-59
2022/05/31 05:42:41;;;;;;;5.45;4.93;;;11.00;99.90;;;;;;5028969;28;20098;-59
2022/05/31 05:45:14;;;;;;;6.50;5.32;;;11.00;99.90;;;;;;5058906;28;20048;-59
2022/05/31 05:47:42;;;;;;;6.22;5.55;;;11.10;99.90;;;;;;5040534;28;20149;-59
2022/05/31 05:50:09;;;;;;;5.88;5.28;;;11.10;99.90;;;;;;5054593;28;20149;-59
2022/05/31 05:52:50;;;;;;;5.72;4.75;;;11.20;99.90;;;;;;5059739;28;20052;-60
2022/05/31 05:55:37;;;;;;;8.48;4.88;;;11.30;99.90;;;;;;5058942;28;20068;-59
2022/05/31 05:58:15;;;;;;;5.20;4.28;;;11.30;99.90;;;;;;5059292;28;20040;-60
2022/05/31 06:01:17;;;;;;;6.70;4.72;;;11.30;99.90;;;;;;5057424;28;20052;-59
2022/05/31 06:03:56;;;;;;;7.10;4.38;;;11.40;99.90;;;;;;5059883;28;20491;-59
2022/05/31 06:06:23;;;;;;;5.40;4.88;;;11.30;99.90;;;;;;5056788;28;20037;-59
2022/05/31 06:09:01;;;;;;;6.65;4.75;;;11.40;99.90;;;;;;5054870;28;20274;-58
2022/05/31 06:11:32;;;;;;;6.88;5.43;;;11.40;99.90;;;;;;5022329;28;20474;-59
2022/05/31 06:14:09;;;;;;;7.27;4.47;;;11.50;99.90;;;;;;5056219;28;20056;-59
2022/05/31 06:16:40;;;;;;;7.70;4.85;;;11.60;99.90;;;;;;5052702;28;21112;-60
2022/05/31 06:19:27;;;;;;;8.02;4.90;;;11.70;99.90;;;;;;5057250;28;20055;-59
2022/05/31 06:21:54;;;;;;;8.07;5.00;;;11.70;99.90;;;;;;5059486;28;20037;-59
2022/05/31 06:24:33;;;;;;;5.20;4.70;;;11.80;99.90;;;;;;5056340;28;20047;-58
2022/05/31 06:27:11;;;;;;;5.72;4.82;;;11.90;99.90;;;;;;5058299;28;20451;-60
2022/05/31 06:29:37;;;;;;;5.85;4.32;;;12.00;99.90;;;;;;5058194;28;20420;-58
2022/05/31 06:32:04;;;;;;;5.10;4.53;;;12.10;99.90;;;;;;5052749;28;20098;-58
2022/05/31 06:34:37;;;;;;;6.32;4.57;;;12.20;99.90;;;;;;5059573;28;20040;-58
2022/05/31 06:37:22;;;;;;;6.32;4.60;;;12.20;99.90;;;;;;5053159;28;20045;-61
2022/05/31 06:39:48;;;;;;;5.90;4.63;;;12.20;99.90;;;;;;5041854;28;20064;-59
2022/05/31 06:42:40;;;;;;;5.78;4.40;;;12.40;99.90;;;;;;5055233;28;20079;-56
2022/05/31 06:45:35;;;;;;;8.23;4.32;;;12.50;99.90;;;;;;4997189;28;20136;-58
2022/05/31 06:48:19;;;;;;;6.35;4.65;;;12.60;99.90;;;;;;5055424;28;20062;-58
2022/05/31 06:51:09;;;;;;;8.07;4.70;;;12.70;99.90;;;;;;5054044;28;20045;-58
2022/05/31 06:57:01;;;;;;;8.52;4.68;;;12.90;99.90;;;;;;5055193;28;20056;-58
2022/05/31 06:59:59;;;;;;;7.47;4.88;;;13.40;99.90;;;;;;5021198;28;20646;-62
2022/05/31 07:02:27;;;;;;;7.88;4.32;;;14.10;99.90;;;;;;5059750;28;20751;-58
2022/05/31 07:04:54;;;;;;;6.80;4.00;;;14.60;99.90;;;;;;5059310;28;20432;-59
2022/05/31 07:07:20;;;;;;;7.07;4.65;;;14.90;99.90;;;;;;5041585;28;20135;-59
2022/05/31 07:09:49;;;;;;;7.28;3.70;;;14.90;99.90;;;;;;5057984;28;20056;-59
2022/05/31 07:12:30;;;;;;;6.85;4.00;;;15.20;99.90;;;;;;5026568;28;20127;-59
2022/05/31 07:15:15;;;;;;;4.82;3.33;;;15.60;99.90;;;;;;5056172;28;20061;-59
2022/05/31 07:18:18;;;;;;;5.18;3.28;;;15.90;99.90;;;;;;4970540;28;20050;-58
2022/05/31 07:20:44;;;;;;;6.53;3.65;;;15.80;99.90;;;;;;5021197;28;20120;-60
2022/05/31 07:23:11;;;;;;;4.63;3.25;;;15.70;99.90;;;;;;5055738;28;20044;-57
2022/05/31 07:25:45;;;;;;;5.60;3.03;;;15.80;99.90;;;;;;5058027;28;20110;-60
2022/05/31 07:28:11;;;;;;;6.55;3.83;;;16.00;99.90;;;;;;5056351;28;20079;-60
2022/05/31 07:30:38;;;;;;;4.60;2.95;;;16.30;99.90;;;;;;5052117;28;20048;-64
2022/05/31 07:33:12;;;;;;;4.60;2.75;;;16.30;99.90;;;;;;5056317;28;20064;-58
2022/05/31 07:35:40;;;;;;;5.43;3.53;;;16.50;99.90;;;;;;5060984;28;20041;-58
2022/05/31 07:38:07;;;;;;;5.00;2.92;;;16.90;99.90;;;;;;5077930;28;20068;-57
2022/05/31 07:40:34;;;;;;;3.97;2.80;;;17.20;99.90;;;;;;5039421;28;20139;-57
2022/05/31 07:43:01;;;;;;;4.47;2.92;;;17.40;99.90;;;;;;5039842;28;20071;-57
2022/05/31 07:45:32;;;;;;;5.13;3.50;;;17.80;99.90;;;;;;5057488;28;20047;-58
2022/05/31 07:47:59;;;;;;;5.03;3.15;;;18.00;99.90;;;;;;5060263;28;20057;-59
2022/05/31 07:50:26;;;;;;;5.57;3.53;;;18.10;99.90;;;;;;5062197;28;20044;-59
2022/05/31 07:52:59;;;;;;;4.60;2.60;;;18.40;99.90;;;;;;5073191;28;20059;-58
2022/05/31 07:55:37;;;;;;;7.47;3.20;;;18.50;99.90;;;;;;5078251;28;20049;-58
2022/05/31 07:58:31;;;;;;;5.05;2.65;;;18.80;99.90;;;;;;5057013;28;20041;-61
2022/05/31 08:01:22;;;;;;;6.78;2.42;;;18.50;99.90;;;;;;5061592;28;20109;-61
2022/05/31 08:03:49;;;;;;;4.60;2.40;;;18.90;99.90;;;;;;5042724;28;20362;-61
2022/05/31 08:06:23;;;;;;;6.00;3.00;;;18.90;99.90;;;;;;5061275;28;20061;-59
2022/05/31 08:08:50;;;;;;;5.03;2.22;;;19.40;99.90;;;;;;5057513;28;20103;-61
2022/05/31 08:11:18;;;;;;;4.32;2.33;;;19.40;99.90;;;;;;5059969;28;20743;-58
2022/05/31 08:13:45;;;;;;;7.63;3.80;;;19.30;96.90;;;;;;5059377;28;20067;-58
2022/05/31 08:16:16;;;;;;;7.70;3.47;;;19.40;96.60;;;;;;5059906;28;20458;-58
2022/05/31 08:18:43;;;;;;;5.50;2.72;;;19.30;98.80;;;;;;5062198;28;20126;-58
2022/05/31 08:21:13;;;;;;;5.97;2.80;;;19.60;80.60;;;;;;5043646;28;20493;-58
2022/05/31 08:23:40;;;;;;;5.05;2.78;;;19.50;85.70;;;;;;5071763;28;20051;-60
2022/05/31 08:26:07;;;;;;;5.53;2.42;;;19.60;91.50;;;;;;5057222;28;20045;-62
2022/05/31 08:28:34;;;;;;;3.90;2.17;;;19.60;90.40;;;;;;5061427;28;20138;-59
2022/05/31 08:31:06;;;;;;;5.75;2.78;;;19.80;87.60;;;;;;5060788;28;20041;-59
2022/05/31 08:33:33;;;;;;;6.53;2.78;;;19.90;92.70;;;;;;5055880;28;20049;-59
2022/05/31 08:36:00;;;;;;;4.53;3.17;;;20.30;96.40;;;;;;5060357;28;20044;-54
2022/05/31 08:38:26;;;;;;;5.00;2.70;;;20.70;92.80;;;;;;5061947;28;20082;-54
2022/05/31 08:41:07;;;;;;;4.30;3.03;;;20.60;90.30;;;;;;5061923;28;20503;-56
2022/05/31 08:43:45;;;;;;;6.93;3.72;;;20.60;78.60;;;;;;5058832;28;20044;-55
2022/05/31 08:46:42;;;;;;;7.30;3.83;;;20.90;65.50;;;;;;5059599;28;20229;-59
2022/05/31 08:51:52;;;;;;;7.20;3.10;;;20.90;60.00;;;;;;5061446;28;20154;-59
2022/05/31 08:52:40;;;;;;;18.50;15.85;;;21.10;67.40;;;;;;5062236;28;20045;-61
2022/05/31 08:58:27;;;;;;;8.13;5.53;;;21.50;57.90;;;;;;5059252;28;20335;-59
2022/05/31 09:00:57;;;;;;;6.63;3.90;;;21.00;58.20;;;;;;5060844;28;20040;-59
2022/05/31 09:03:23;;;;;;;7.07;4.05;;;20.50;59.50;;;;;;5059417;28;20056;-59
2022/05/31 09:06:05;;;;;;;6.07;3.88;;;20.80;62.20;;;;;;5061003;28;20048;-58
2022/05/31 09:08:50;;;;;;;7.78;5.38;;;21.20;61.10;;;;;;5057614;28;20071;-59
2022/05/31 09:11:29;;;;;;;6.72;4.95;;;21.20;53.40;;;;;;5055804;28;20048;-62
2022/05/31 09:14:19;;;;;;;5.75;3.90;;;21.40;52.90;;;;;;5060462;28;20048;-59
2022/05/31 09:17:03;;;;;;;10.68;6.80;;;21.50;52.90;;;;;;5061519;28;20048;-57
2022/05/31 09:19:44;;;;;;;9.45;6.93;;;21.80;58.60;;;;;;5060275;28;20048;-56
2022/05/31 09:22:11;;;;;;;7.18;4.70;;;21.30;52.50;;;;;;5026780;28;20051;-56
2022/05/31 09:24:41;;;;;;;8.23;4.70;;;20.90;57.20;;;;;;5059373;28;20044;-57
2022/05/31 09:27:19;;;;;;;8.77;5.57;;;20.40;56.10;;;;;;5025723;28;20351;-57
2022/05/31 09:29:47;;;;;;;6.63;4.95;;;19.80;54.40;;;;;;5059183;28;20036;-56
2022/05/31 09:32:33;;;;;;;8.80;4.85;;;19.80;57.60;;;;;;5058095;28;20040;-58
2022/05/31 09:35:24;;;;;;;7.53;4.70;;;19.60;60.60;;;;;;5061739;28;20052;-58
2022/05/31 09:38:05;;;;;;;7.57;4.68;;;19.20;58.90;;;;;;5056727;28;20376;-58
2022/05/31 09:40:47;;;;;;;7.95;4.43;;;18.90;64.00;;;;;;5061486;28;20055;-57
2022/05/31 09:43:35;;;;;;;6.50;4.38;;;18.80;65.10;;;;;;5054571;28;20052;-57
2022/05/31 09:46:08;;;;;;;8.77;4.50;;;18.70;67.90;;;;;;5060972;28;20040;-57
2022/05/31 09:48:47;;;;;;;7.22;3.75;;;18.70;71.90;;;;;;5024483;28;20117;-58
2022/05/31 09:51:35;;;;;;;7.13;3.60;;;18.60;69.80;;;;;;5058910;28;20817;-56
2022/05/31 09:57:28;;;;;;;9.93;4.00;;;18.40;59.00;;;;;;4972345;28;20073;-55
2022/05/31 10:00:13;;;;;;;7.78;4.00;;;18.10;55.20;;;;;;5057988;28;21394;-57
2022/05/31 10:03:13;;;;;;;6.30;3.22;;;18.20;55.30;;;;;;5074897;28;20052;-58
2022/05/31 10:05:42;;;;;;;6.28;3.10;;;18.10;57.40;;;;;;5058806;28;20052;-57
2022/05/31 10:08:29;;;;;;;8.02;3.25;;;18.40;55.40;;;;;;5039354;28;20048;-57
2022/05/31 10:10:56;;;;;;;7.30;3.50;;;18.70;66.60;;;;;;5058120;28;20054;-57
2022/05/31 10:13:41;;;;;;;6.65;4.20;;;18.70;55.10;;;;;;5058628;28;20060;-57
2022/05/31 10:16:18;;;;;;;6.10;3.65;;;19.20;56.10;;;;;;5031099;28;20060;-57
2022/05/31 10:19:10;;;;;;;9.80;6.05;;;19.50;54.60;;;;;;5014797;28;20095;-57
2022/05/31 10:21:42;;;;;;;6.68;4.15;;;19.70;53.30;;;;;;5012484;28;20531;-57
2022/05/31 10:24:21;;;;;;;7.95;3.90;;;19.80;51.10;;;;;;5018487;28;20341;-58
2022/05/31 10:27:13;;;;;;;6.85;3.92;;;19.70;48.70;;;;;;5019580;28;20049;-58
2022/05/31 10:29:53;;;;;;;5.78;3.50;;;20.00;48.40;;;;;;5015773;28;20124;-59
2022/05/31 10:32:43;;;;;;;4.63;2.83;;;20.50;47.90;;;;;;5019165;28;20072;-58
2022/05/31 10:35:17;;;;;;;6.18;2.97;;;20.50;45.90;;;;;;5018835;28;20129;-58
2022/05/31 10:38:23;;;;;;;6.03;3.85;;;20.80;49.40;;;;;;5003497;28;20049;-58
2022/05/31 10:41:14;;;;;;;5.53;2.72;;;20.90;45.00;;;;;;5015531;28;20054;-57
2022/05/31 10:43:52;;;;;;;5.03;3.28;;;21.00;48.80;;;;;;5018503;28;20175;-58
2022/05/31 10:46:32;;;;;;;6.32;3.33;;;20.80;49.70;;;;;;5018742;28;20049;-57
2022/05/31 10:49:15;;;;;;;4.90;3.10;;;21.10;50.10;;;;;;5021400;28;20126;-57
2022/05/31 10:51:54;;;;;;;7.35;3.63;;;21.30;52.50;;;;;;5018193;28;20572;-55
2022/05/31 10:54:48;;;;;;;6.25;3.65;;;20.90;49.30;;;;;;5019867;28;20046;-57
2022/05/31 10:57:52;;;;;;;6.63;3.58;;;20.90;45.80;;;;;;5019177;28;20038;-57
2022/05/31 11:00:38;;;;;;;5.72;3.58;;;20.40;48.00;;;;;;5017177;28;20049;-56
2022/05/31 11:03:23;;;;;;;7.05;3.40;;;20.30;49.90;;;;;;5017939;28;20528;-56
2022/05/31 11:05:58;;;;;;;4.90;2.65;;;20.20;49.60;;;;;;5018738;28;20096;-57
2022/05/31 11:11:28;;;;;;;5.68;3.33;;;19.80;47.10;;;;;;5021716;28;20045;-58
2022/05/31 11:14:07;;;;;;;5.32;3.13;;;19.60;48.30;;;;;;5028373;28;20503;-58
2022/05/31 11:16:57;;;;;;;5.15;3.35;;;19.60;49.90;;;;;;5061205;28;20575;-56
2022/05/31 11:19:30;;;;;;;6.35;3.30;;;19.60;50.20;;;;;;5062668;28;20056;-56
2022/05/31 11:22:28;;;;;;;4.90;3.03;;;19.60;51.30;;;;;;5061921;28;20074;-57
2022/05/31 11:25:10;;;;;;;5.88;2.72;;;19.50;48.60;;;;;;5044399;28;20055;-56
2022/05/31 11:27:51;;;;;;;5.38;3.17;;;19.50;50.80;;;;;;5061707;28;21467;-56
2022/05/31 11:30:23;;;;;;;;;;;19.60;49.50;;;;;;5059661;28;20364;-56
2022/05/31 11:32:52;;;;;;;6.70;4.05;;;19.40;46.20;;;;;;5063444;28;20007;-55
2022/05/31 11:35:43;;;;;;;5.97;3.50;;;19.40;48.10;;;;;;5062801;28;20444;-56
2022/05/31 11:38:34;;;;;;;5.22;3.42;;;19.40;49.90;;;;;;5041656;28;20092;-55
2022/05/31 11:41:53;;;;;;;5.32;3.30;;;19.40;49.20;;;;;;5072581;28;20565;-56
2022/05/31 11:44:38;;;;;;;5.50;3.90;;;19.40;50.20;;;;;;5043142;28;20434;-56
2022/05/31 11:47:15;;;;;;;6.45;3.95;;;19.40;49.00;;;;;;5056906;28;20040;-56
2022/05/31 11:50:14;;;;;;;7.03;4.55;;;19.50;49.00;;;;;;5061574;28;20541;-56
2022/05/31 11:53:19;;;;;;;5.45;3.90;;;19.40;48.20;;;;;;5062281;28;20072;-58
2022/05/31 11:55:54;;;;;;;6.60;4.00;;;19.60;47.90;;;;;;5060749;28;20506;-57
2022/05/31 11:58:39;;;;;;;7.38;4.05;;;19.70;47.10;;;;;;5044114;28;20096;-56
2022/05/31 12:01:22;;;;;;;6.32;4.20;;;19.80;48.50;;;;;;5062251;28;20573;-57
2022/05/31 12:04:03;;;;;;;6.03;3.83;;;20.20;50.50;;;;;;5058974;28;20427;-57
2022/05/31 12:06:35;;;;;;;8.55;3.65;;;20.00;50.40;;;;;;5063030;28;20045;-56
2022/05/31 12:09:33;;;;;;;6.53;3.80;;;19.90;48.20;;;;;;5059602;28;20127;-57
2022/05/31 12:12:20;;;;;;;7.25;3.70;;;20.10;49.00;;;;;;5045252;28;20198;-57
2022/05/31 12:14:54;;;;;;;5.35;3.97;;;20.20;48.60;;;;;;5058780;28;20072;-56
2022/05/31 12:17:31;;;;;;;6.07;3.80;;;20.00;46.10;;;;;;5027477;28;20087;-56
2022/05/31 12:20:08;;;;;;;8.70;4.85;;;19.90;47.90;;;;;;5059768;28;20056;-58
2022/05/31 12:22:41;;;;;;;10.38;5.35;;;19.70;48.40;;;;;;5059860;28;20036;-58
2022/05/31 12:25:14;;;;;;;10.35;6.03;;;19.40;53.50;;;;;;5057946;28;20053;-58
2022/05/31 12:27:56;;;;;;;8.23;6.18;;;19.50;65.90;;;;;;5062306;28;20491;-58
2022/05/31 12:30:56;;;;;;;10.63;6.55;;;19.30;75.40;;;;;;5039666;28;20047;-58
2022/05/31 12:33:31;;;;;;;8.30;6.63;;;19.10;72.60;;;;;;5057786;28;20078;-57
2022/05/31 12:35:57;;;;;;;8.57;6.80;;;18.60;65.00;;;;;;5056255;28;20036;-58
2022/05/31 12:38:24;;;;;;;8.35;6.90;;;18.60;65.60;;;;;;5062779;28;20080;-57
2022/05/31 12:40:53;;;;;;;8.07;7.07;;;18.50;74.80;;;;;;5057073;28;20041;-57
2022/05/31 12:43:55;;;;;;;10.00;6.70;;;18.40;74.70;;;;;;5070545;28;20052;-57
2022/05/31 12:46:22;;;;;;;;;;;18.40;75.70;;;;;;5058132;28;20119;-57
2022/05/31 12:48:58;;;;;;;20.25;15.23;;;18.20;75.00;;;;;;5056783;28;20178;-58
2022/05/31 12:51:24;;;;;;;10.35;8.27;;;18.10;69.40;;;;;;5061326;28;20483;-57
2022/05/31 12:53:50;;;;;;;8.60;6.13;;;18.00;72.40;;;;;;5059181;28;20047;-55
2022/05/31 12:56:34;;;;;;;11.10;7.50;;;18.10;75.50;;;;;;5041095;28;20076;-58
2022/05/31 12:59:01;;;;;;;8.38;5.55;;;18.00;70.40;;;;;;5023720;28;20079;-58
2022/05/31 13:01:27;;;;;;;10.23;8.27;;;17.90;73.80;;;;;;5057580;28;20079;-58
2022/05/31 13:04:05;;;;;;;7.50;6.72;;;17.80;71.60;;;;;;5042667;28;20044;-59
2022/05/31 13:06:50;;;;;;;63.15;56.25;;;17.90;68.70;;;;;;5059520;28;20133;-53
2022/05/31 13:09:32;;;;;;;14.68;12.75;;;17.80;80.20;;;;;;5056268;28;20044;-53
2022/05/31 13:20:30;;;;;;;15.80;11.57;;;17.70;91.20;;;;;;5055702;28;20542;-58
2022/05/31 13:22:58;;;;;;;10.18;8.32;;;17.50;90.90;;;;;;5058271;28;20121;-53
2022/05/31 13:25:39;;;;;;;16.00;11.95;;;17.40;94.40;;;;;;5059941;28;20052;-58
2022/05/31 13:28:05;;;;;;;10.80;8.88;;;17.30;87.60;;;;;;5059242;28;20433;-54
2022/05/31 13:30:40;;;;;;;10.65;7.55;;;17.30;87.10;;;;;;5055084;28;20040;-58
2022/05/31 13:33:16;;;;;;;17.33;14.70;;;17.20;81.00;;;;;;5042136;28;20134;-56
2022/05/31 13:35:43;;;;;;;8.02;6.95;;;17.20;84.30;;;;;;5057796;28;20129;-56
2022/05/31 13:38:20;;;;;;;18.73;16.77;;;17.20;91.50;;;;;;5058745;28;20049;-55
2022/05/31 13:40:50;;;;;;;11.15;8.82;;;17.30;90.00;;;;;;5058600;28;20048;-54
2022/05/31 13:43:38;;;;;;;7.82;6.63;;;17.20;92.40;;;;;;5056566;28;20052;-54
2022/05/31 13:46:33;;;;;;;10.43;6.93;;;17.10;90.00;;;;;;5059152;28;20462;-54
2022/05/31 13:49:06;;;;;;;13.48;11.07;;;17.00;83.90;;;;;;5055187;28;20044;-53
2022/05/31 13:51:34;;;;;;;11.30;9.15;;;17.00;80.10;;;;;;5059633;28;20044;-57
2022/05/31 13:54:18;;;;;;;8.48;6.63;;;17.10;75.90;;;;;;5059051;28;20053;-54
2022/05/31 13:56:46;;;;;;;13.43;11.52;;;17.00;81.00;;;;;;5056374;28;20513;-54
2022/05/31 13:59:12;;;;;;;14.35;12.77;;;17.00;82.40;;;;;;5040633;28;20068;-55
2022/05/31 14:01:47;;;;;;;7.32;5.40;;;17.10;90.30;;;;;;5052151;28;20056;-54
2022/05/31 14:04:22;;;;;;;9.35;5.65;;;17.00;93.00;;;;;;5057166;28;20044;-54
2022/05/31 14:06:50;;;;;;;6.88;4.95;;;17.10;90.70;;;;;;5055742;28;20071;-55
2022/05/31 14:09:22;;;;;;;8.43;6.55;;;17.30;90.10;;;;;;5059016;28;22235;-52